Hot Springs Natl Park, AR

12:51 PM CDT on May 26, 2017 (GMT -0500)
HOT SPRINGS | | Change Station
Active Advisory: Lake Wind Advisory

Elev 443 ft 34.53 °N, 93.16 °W | Updated 21 seconds ago

Overcast
Overcast
76.8 °F
Feels Like 78 °F
N
0.0
Wind Variable Wind from ESE

Today
High -- | Low -- °F
--% Chance of Precip.
Yesterday
High -- | Low -- °F
Precip. -- in
Pressure 29.83 in
Visibility 10.0 miles
Clouds Overcast 1700 ft
Heat Index 78 °F
Dew Point 70 °F
Humidity 80%
Rainfall 0.00 in
Snow Depth Not available.
6:03 AM 8:16 PM
New Moon, 1% visible
METAR KHOT 261653Z AUTO VRB04KT 10SM OVC017 23/20 A2985 RMK AO2 SLP102 T02280200
Pressure 29.83 in
Visibility 10.0 miles
Clouds Overcast 1700 ft
Heat Index 78 °F
Dew Point 70 °F
Humidity 80%
Rainfall 0.00 in
Snow Depth Not available.
6:03 AM 8:16 PM
New Moon, 1% visible
METAR KHOT 261653Z AUTO VRB04KT 10SM OVC017 23/20 A2985 RMK AO2 SLP102 T02280200

Get Your Daily Forecast Email!

Thanks for signing up!

Be on the lookout for a verification email in your inbox.

You'll start receiving severe weather alerts in your inbox..

×

10-Day Weather Forecast

Almanac

Astronomy

May. 26, 2017 Rise Set
Actual Time
Civil Twilight
Nautical Twilight
Astronomical Twilight
Moon
Length of Visible Light
Length of Day
Tomorrow will be .
, % of the Moon is Illuminated

Today's Extremes

State Highs State Lows

Community

WunderPhotos

Category 6

Welcome to Category 6. This is the collective home for Weather Underground's featured writeups by Dr. Jeff Masters (right), Bob Henson (left), Chris Burt, and other regular contributors.

Nearby

Air Quality

  Air Quality AQ Index Pollutant
Not available.

Snow Depth

Station Depth Elevation

Earthquake Activity

City Distance Mag. Time & Date
Minimum magnitude displayed is 2.5.

Coastal Water Temperatures

Place Temperature

Stations

Nearby Weather Stations

Station Location Temp. Windchill Dew Point Humidity Wind Precip. Elev Updated Type
                   

Watches & Warnings

Lake Wind Advisory
Issued: 10:11 AM CDT May. 26, 2017 – National Weather Service

... Lake Wind Advisory in effect until 7 PM CDT this evening...

The National Weather Service in Little Rock has issued a lake
Wind Advisory, which is in effect until 7 PM CDT this evening.

* Event... strong south winds will increase today across parts of
northeast, central, and south Arkansas.

* Areas affected... the advisory will affect areas east of a line
from Viola... to Casa... to Amity.

* Timing... south winds will remain strong and gusty through this
aftenroon.

* Winds... south winds around 20 mph will gust to 35 mph at times.

* Impacts... winds are expected to be strong enough to cause
problems for boaters on area lakes and rivers. Small boats will
be the most significantly impacted.

Precautionary/preparedness actions...

A lake Wind Advisory indicates that winds will cause rough chop
on area lakes. Small boats will be especially prone to capsizing.



51